sensor_id;sensor_type;location;lat;lon;timestamp;pressure;altitude;pressure_sealevel;temperature;humidity
33280;BME280;20403;43.114;12.434;2022-08-19T00:01:41;98390.13;;;23.01;100.00
33280;BME280;20403;43.114;12.434;2022-08-19T00:04:08;98399.50;;;22.99;100.00
33280;BME280;20403;43.114;12.434;2022-08-19T00:06:36;98407.00;;;22.97;100.00
33280;BME280;20403;43.114;12.434;2022-08-19T00:09:04;98414.16;;;23.05;100.00
33280;BME280;20403;43.114;12.434;2022-08-19T00:11:31;98412.56;;;23.13;100.00
33280;BME280;20403;43.114;12.434;2022-08-19T00:13:56;98402.44;;;23.06;100.00
33280;BME280;20403;43.114;12.434;2022-08-19T00:16:23;98399.31;;;23.04;100.00
33280;BME280;20403;43.114;12.434;2022-08-19T00:18:49;98401.44;;;23.11;100.00
33280;BME280;20403;43.114;12.434;2022-08-19T00:21:15;98397.06;;;23.15;100.00
33280;BME280;20403;43.114;12.434;2022-08-19T00:23:42;98404.72;;;23.16;100.00
33280;BME280;20403;43.114;12.434;2022-08-19T00:26:08;98420.41;;;23.09;100.00
33280;BME280;20403;43.114;12.434;2022-08-19T00:28:34;98417.66;;;22.88;100.00
33280;BME280;20403;43.114;12.434;2022-08-19T00:31:02;98415.75;;;22.97;100.00
33280;BME280;20403;43.114;12.434;2022-08-19T00:33:29;98411.25;;;22.89;100.00
33280;BME280;20403;43.114;12.434;2022-08-19T00:35:58;98411.84;;;22.95;100.00
33280;BME280;20403;43.114;12.434;2022-08-19T00:38:23;98400.75;;;23.01;100.00
33280;BME280;20403;43.114;12.434;2022-08-19T00:40:49;98404.50;;;22.92;100.00
33280;BME280;20403;43.114;12.434;2022-08-19T00:43:19;98437.41;;;22.78;100.00
33280;BME280;20403;43.114;12.434;2022-08-19T00:45:45;98457.59;;;22.62;100.00
33280;BME280;20403;43.114;12.434;2022-08-19T00:48:10;98470.41;;;22.69;100.00
33280;BME280;20403;43.114;12.434;2022-08-19T00:50:38;98465.38;;;22.84;100.00
33280;BME280;20403;43.114;12.434;2022-08-19T00:53:06;98456.63;;;22.75;100.00
33280;BME280;20403;43.114;12.434;2022-08-19T00:55:33;98464.69;;;22.58;100.00
33280;BME280;20403;43.114;12.434;2022-08-19T00:58:02;98467.81;;;22.60;100.00
33280;BME280;20403;43.114;12.434;2022-08-19T01:00:29;98451.50;;;22.70;100.00
33280;BME280;20403;43.114;12.434;2022-08-19T01:02:54;98463.06;;;22.74;100.00
33280;BME280;20403;43.114;12.434;2022-08-19T01:05:24;98439.63;;;22.68;100.00
33280;BME280;20403;43.114;12.434;2022-08-19T01:07:53;98411.84;;;22.56;100.00
33280;BME280;20403;43.114;12.434;2022-08-19T01:10:23;98405.28;;;22.54;100.00
33280;BME280;20403;43.114;12.434;2022-08-19T01:12:49;98395.59;;;22.49;100.00
33280;BME280;20403;43.114;12.434;2022-08-19T01:15:18;98404.34;;;22.50;100.00
33280;BME280;20403;43.114;12.434;2022-08-19T01:17:45;98408.88;;;22.49;100.00
33280;BME280;20403;43.114;12.434;2022-08-19T01:20:18;98403.31;;;22.33;100.00
33280;BME280;20403;43.114;12.434;2022-08-19T01:22:56;98407.50;;;22.43;100.00
33280;BME280;20403;43.114;12.434;2022-08-19T01:25:31;98415.91;;;22.54;100.00
33280;BME280;20403;43.114;12.434;2022-08-19T01:27:57;98406.53;;;22.48;100.00
33280;BME280;20403;43.114;12.434;2022-08-19T01:30:31;98397.78;;;22.47;100.00
33280;BME280;20403;43.114;12.434;2022-08-19T01:32:58;98419.22;;;22.42;100.00
33280;BME280;20403;43.114;12.434;2022-08-19T01:35:25;98434.69;;;22.40;100.00
33280;BME280;20403;43.114;12.434;2022-08-19T01:37:58;98423.91;;;22.36;100.00
33280;BME280;20403;43.114;12.434;2022-08-19T01:40:28;98428.25;;;22.50;100.00
33280;BME280;20403;43.114;12.434;2022-08-19T01:42:54;98442.66;;;22.49;100.00
33280;BME280;20403;43.114;12.434;2022-08-19T01:45:22;98419.53;;;22.40;100.00
33280;BME280;20403;43.114;12.434;2022-08-19T01:47:48;98420.28;;;22.50;100.00
33280;BME280;20403;43.114;12.434;2022-08-19T01:50:14;98427.50;;;22.40;100.00
33280;BME280;20403;43.114;12.434;2022-08-19T01:52:40;98443.44;;;22.32;100.00
33280;BME280;20403;43.114;12.434;2022-08-19T01:55:09;98451.59;;;22.35;100.00
33280;BME280;20403;43.114;12.434;2022-08-19T01:57:37;98467.81;;;22.34;100.00
33280;BME280;20403;43.114;12.434;2022-08-19T02:00:08;98457.53;;;22.32;100.00
33280;BME280;20403;43.114;12.434;2022-08-19T02:02:34;98457.34;;;22.20;100.00
33280;BME280;20403;43.114;12.434;2022-08-19T02:04:59;98443.13;;;22.16;100.00
33280;BME280;20403;43.114;12.434;2022-08-19T02:07:24;98434.25;;;22.12;100.00
33280;BME280;20403;43.114;12.434;2022-08-19T02:09:50;98420.97;;;22.12;100.00
33280;BME280;20403;43.114;12.434;2022-08-19T02:12:15;98433.78;;;22.10;100.00
33280;BME280;20403;43.114;12.434;2022-08-19T02:14:41;98442.50;;;22.10;100.00
33280;BME280;20403;43.114;12.434;2022-08-19T02:17:08;98448.28;;;22.12;100.00
33280;BME280;20403;43.114;12.434;2022-08-19T02:19:33;98452.53;;;22.05;100.00
33280;BME280;20403;43.114;12.434;2022-08-19T02:21:59;98457.81;;;22.13;100.00
33280;BME280;20403;43.114;12.434;2022-08-19T02:24:25;98476.25;;;22.10;100.00
33280;BME280;20403;43.114;12.434;2022-08-19T02:26:51;98473.44;;;22.15;100.00
33280;BME280;20403;43.114;12.434;2022-08-19T02:29:16;98468.59;;;22.08;100.00
33280;BME280;20403;43.114;12.434;2022-08-19T02:31:42;98475.78;;;21.99;100.00
33280;BME280;20403;43.114;12.434;2022-08-19T02:34:07;98481.56;;;22.01;100.00
33280;BME280;20403;43.114;12.434;2022-08-19T02:36:33;98488.28;;;22.07;100.00
33280;BME280;20403;43.114;12.434;2022-08-19T02:38:59;98483.91;;;22.02;100.00
33280;BME280;20403;43.114;12.434;2022-08-19T02:41:29;98479.84;;;22.05;100.00
33280;BME280;20403;43.114;12.434;2022-08-19T02:43:57;98458.44;;;22.01;100.00
33280;BME280;20403;43.114;12.434;2022-08-19T02:46:26;98461.72;;;21.98;100.00
33280;BME280;20403;43.114;12.434;2022-08-19T02:48:55;98457.19;;;21.99;100.00
33280;BME280;20403;43.114;12.434;2022-08-19T02:51:24;98458.47;;;21.93;100.00
33280;BME280;20403;43.114;12.434;2022-08-19T02:53:50;98462.19;;;21.92;100.00
33280;BME280;20403;43.114;12.434;2022-08-19T02:56:16;98483.72;;;21.90;100.00
33280;BME280;20403;43.114;12.434;2022-08-19T02:58:43;98475.94;;;21.85;100.00
33280;BME280;20403;43.114;12.434;2022-08-19T03:01:09;98484.84;;;21.89;100.00
33280;BME280;20403;43.114;12.434;2022-08-19T03:03:35;98494.34;;;21.90;100.00
33280;BME280;20403;43.114;12.434;2022-08-19T03:06:12;98496.88;;;21.95;100.00
33280;BME280;20403;43.114;12.434;2022-08-19T03:08:40;98500.94;;;21.93;100.00
33280;BME280;20403;43.114;12.434;2022-08-19T03:11:12;98489.38;;;21.89;100.00
33280;BME280;20403;43.114;12.434;2022-08-19T03:13:38;98488.25;;;21.81;100.00
33280;BME280;20403;43.114;12.434;2022-08-19T03:16:05;98502.31;;;21.81;100.00
33280;BME280;20403;43.114;12.434;2022-08-19T03:18:31;98505.75;;;21.82;100.00
33280;BME280;20403;43.114;12.434;2022-08-19T05:23:20;98481.06;;;21.90;100.00
33280;BME280;20403;43.114;12.434;2022-08-19T05:25:45;98474.69;;;22.09;100.00
33280;BME280;20403;43.114;12.434;2022-08-19T05:28:11;98465.94;;;22.08;100.00
33280;BME280;20403;43.114;12.434;2022-08-19T05:30:36;98450.94;;;22.03;100.00
33280;BME280;20403;43.114;12.434;2022-08-19T05:33:02;98444.56;;;22.05;100.00
33280;BME280;20403;43.114;12.434;2022-08-19T05:35:27;98437.69;;;22.12;100.00
33280;BME280;20403;43.114;12.434;2022-08-19T05:37:53;98416.94;;;22.23;100.00
33280;BME280;20403;43.114;12.434;2022-08-19T05:40:19;98421.91;;;22.24;100.00
33280;BME280;20403;43.114;12.434;2022-08-19T05:42:45;98411.09;;;22.30;100.00
33280;BME280;20403;43.114;12.434;2022-08-19T05:45:11;98407.22;;;22.27;100.00
33280;BME280;20403;43.114;12.434;2022-08-19T06:00:33;98421.13;;;22.80;100.00
33280;BME280;20403;43.114;12.434;2022-08-19T06:02:58;98425.94;;;22.86;100.00
33280;BME280;20403;43.114;12.434;2022-08-19T06:05:31;98425.00;;;23.00;100.00
33280;BME280;20403;43.114;12.434;2022-08-19T06:07:56;98423.84;;;23.10;100.00
33280;BME280;20403;43.114;12.434;2022-08-19T06:10:24;98436.75;;;23.20;100.00
33280;BME280;20403;43.114;12.434;2022-08-19T06:12:49;98450.38;;;23.27;100.00
33280;BME280;20403;43.114;12.434;2022-08-19T06:15:15;98463.50;;;23.23;100.00
33280;BME280;20403;43.114;12.434;2022-08-19T06:17:41;98460.44;;;23.13;100.00
33280;BME280;20403;43.114;12.434;2022-08-19T06:20:11;98471.22;;;23.16;100.00
33280;BME280;20403;43.114;12.434;2022-08-19T06:22:43;98471.06;;;23.13;100.00
33280;BME280;20403;43.114;12.434;2022-08-19T06:25:10;98481.38;;;23.23;100.00
33280;BME280;20403;43.114;12.434;2022-08-19T06:27:36;98476.63;;;23.28;100.00
33280;BME280;20403;43.114;12.434;2022-08-19T06:30:03;98475.47;;;23.38;100.00
33280;BME280;20403;43.114;12.434;2022-08-19T06:32:29;98488.88;;;23.51;100.00
33280;BME280;20403;43.114;12.434;2022-08-19T06:34:55;98478.50;;;23.58;100.00
33280;BME280;20403;43.114;12.434;2022-08-19T06:37:21;98481.75;;;23.63;100.00
33280;BME280;20403;43.114;12.434;2022-08-19T06:39:47;98489.88;;;23.76;100.00
33280;BME280;20403;43.114;12.434;2022-08-19T06:42:13;98488.56;;;23.82;100.00
33280;BME280;20403;43.114;12.434;2022-08-19T06:44:42;98493.75;;;23.99;100.00
33280;BME280;20403;43.114;12.434;2022-08-19T06:47:10;98501.34;;;23.88;100.00
33280;BME280;20403;43.114;12.434;2022-08-19T06:49:35;98503.09;;;23.84;100.00
33280;BME280;20403;43.114;12.434;2022-08-19T06:52:02;98518.81;;;23.77;100.00
33280;BME280;20403;43.114;12.434;2022-08-19T06:54:28;98520.69;;;23.77;100.00
33280;BME280;20403;43.114;12.434;2022-08-19T06:56:55;98521.41;;;23.56;100.00
33280;BME280;20403;43.114;12.434;2022-08-19T06:59:22;98519.47;;;23.65;100.00
33280;BME280;20403;43.114;12.434;2022-08-19T07:01:52;98529.03;;;23.66;100.00
33280;BME280;20403;43.114;12.434;2022-08-19T07:04:21;98530.91;;;23.66;100.00
33280;BME280;20403;43.114;12.434;2022-08-19T07:06:47;98527.81;;;23.64;100.00
33280;BME280;20403;43.114;12.434;2022-08-19T07:09:14;98529.50;;;23.68;100.00
33280;BME280;20403;43.114;12.434;2022-08-19T07:11:46;98521.63;;;23.81;100.00
33280;BME280;20403;43.114;12.434;2022-08-19T07:14:13;98518.75;;;23.86;100.00
33280;BME280;20403;43.114;12.434;2022-08-19T07:16:39;98523.38;;;23.98;100.00
33280;BME280;20403;43.114;12.434;2022-08-19T07:19:05;98523.13;;;23.90;100.00
33280;BME280;20403;43.114;12.434;2022-08-19T07:21:31;98528.50;;;23.82;100.00
33280;BME280;20403;43.114;12.434;2022-08-19T07:23:59;98533.25;;;23.76;100.00
33280;BME280;20403;43.114;12.434;2022-08-19T07:26:27;98530.59;;;23.67;100.00
33280;BME280;20403;43.114;12.434;2022-08-19T07:28:53;98534.69;;;23.65;100.00
33280;BME280;20403;43.114;12.434;2022-08-19T07:31:21;98537.94;;;23.70;100.00
33280;BME280;20403;43.114;12.434;2022-08-19T07:33:49;98534.84;;;23.68;100.00
33280;BME280;20403;43.114;12.434;2022-08-19T07:36:21;98538.47;;;23.64;100.00
33280;BME280;20403;43.114;12.434;2022-08-19T07:38:49;98535.59;;;23.69;100.00
33280;BME280;20403;43.114;12.434;2022-08-19T07:41:19;98536.69;;;23.77;100.00
33280;BME280;20403;43.114;12.434;2022-08-19T07:43:45;98530.09;;;24.04;100.00
33280;BME280;20403;43.114;12.434;2022-08-19T07:46:11;98517.84;;;24.45;100.00
33280;BME280;20403;43.114;12.434;2022-08-19T07:48:40;98501.72;;;24.74;100.00
33280;BME280;20403;43.114;12.434;2022-08-19T07:51:08;98510.78;;;25.07;100.00
33280;BME280;20403;43.114;12.434;2022-08-19T07:53:35;98502.56;;;25.12;100.00
33280;BME280;20403;43.114;12.434;2022-08-19T07:56:02;98508.34;;;25.02;100.00
33280;BME280;20403;43.114;12.434;2022-08-19T07:58:35;98503.31;;;24.88;100.00
33280;BME280;20403;43.114;12.434;2022-08-19T08:01:02;98516.09;;;24.82;100.00
33280;BME280;20403;43.114;12.434;2022-08-19T08:03:29;98505.66;;;25.02;100.00
33280;BME280;20403;43.114;12.434;2022-08-19T08:06:14;98495.91;;;25.55;100.00
33280;BME280;20403;43.114;12.434;2022-08-19T08:08:59;98495.63;;;25.97;100.00
33280;BME280;20403;43.114;12.434;2022-08-19T08:11:52;98476.50;;;26.51;100.00
33280;BME280;20403;43.114;12.434;2022-08-19T08:14:31;98496.31;;;26.78;100.00
33280;BME280;20403;43.114;12.434;2022-08-19T08:16:58;98495.50;;;26.78;100.00
33280;BME280;20403;43.114;12.434;2022-08-19T08:19:25;98490.78;;;26.87;100.00
33280;BME280;20403;43.114;12.434;2022-08-19T08:21:55;98490.53;;;26.76;100.00
33280;BME280;20403;43.114;12.434;2022-08-19T08:24:22;98486.13;;;26.40;100.00
33280;BME280;20403;43.114;12.434;2022-08-19T08:26:47;98485.81;;;26.13;100.00
33280;BME280;20403;43.114;12.434;2022-08-19T08:29:14;98493.75;;;26.26;100.00
33280;BME280;20403;43.114;12.434;2022-08-19T08:31:42;98489.03;;;26.35;100.00
33280;BME280;20403;43.114;12.434;2022-08-19T08:34:10;98490.41;;;26.57;100.00
33280;BME280;20403;43.114;12.434;2022-08-19T08:36:40;98496.25;;;26.06;100.00
33280;BME280;20403;43.114;12.434;2022-08-19T08:39:08;98503.25;;;25.70;100.00
33280;BME280;20403;43.114;12.434;2022-08-19T08:41:56;98499.38;;;25.31;100.00
33280;BME280;20403;43.114;12.434;2022-08-19T08:44:31;98497.66;;;24.89;100.00
33280;BME280;20403;43.114;12.434;2022-08-19T08:47:01;98509.16;;;24.69;100.00
33280;BME280;20403;43.114;12.434;2022-08-19T08:52:10;98524.75;;;24.04;100.00
33280;BME280;20403;43.114;12.434;2022-08-19T08:54:43;98534.00;;;23.77;100.00
33280;BME280;20403;43.114;12.434;2022-08-19T09:00:15;98552.78;;;23.42;100.00
33280;BME280;20403;43.114;12.434;2022-08-19T09:02:42;98546.16;;;23.18;100.00
33280;BME280;20403;43.114;12.434;2022-08-19T09:05:09;98578.44;;;22.91;100.00
33280;BME280;20403;43.114;12.434;2022-08-19T09:10:21;98582.38;;;22.50;100.00
33280;BME280;20403;43.114;12.434;2022-08-19T09:16:20;98600.84;;;21.80;100.00
33280;BME280;20403;43.114;12.434;2022-08-19T09:18:49;98604.81;;;21.60;100.00
33280;BME280;20403;43.114;12.434;2022-08-19T09:21:18;98613.56;;;21.60;100.00
33280;BME280;20403;43.114;12.434;2022-08-19T09:23:43;98616.03;;;21.57;100.00
33280;BME280;20403;43.114;12.434;2022-08-19T09:26:15;98625.41;;;21.54;100.00
33280;BME280;20403;43.114;12.434;2022-08-19T09:28:42;98635.25;;;21.54;100.00
33280;BME280;20403;43.114;12.434;2022-08-19T09:31:13;98645.63;;;21.42;100.00
33280;BME280;20403;43.114;12.434;2022-08-19T09:33:39;98645.41;;;21.38;100.00
33280;BME280;20403;43.114;12.434;2022-08-19T09:36:07;98651.31;;;21.57;100.00
33280;BME280;20403;43.114;12.434;2022-08-19T09:38:34;98648.81;;;21.52;100.00
33280;BME280;20403;43.114;12.434;2022-08-19T09:41:11;98639.88;;;21.48;100.00
33280;BME280;20403;43.114;12.434;2022-08-19T09:43:39;98638.63;;;21.46;100.00
33280;BME280;20403;43.114;12.434;2022-08-19T09:46:05;98636.88;;;21.41;100.00
33280;BME280;20403;43.114;12.434;2022-08-19T09:48:40;98637.28;;;21.34;100.00
33280;BME280;20403;43.114;12.434;2022-08-19T09:51:11;98638.66;;;21.54;100.00
33280;BME280;20403;43.114;12.434;2022-08-19T09:53:38;98640.06;;;21.52;100.00
33280;BME280;20403;43.114;12.434;2022-08-19T09:56:05;98641.72;;;21.70;100.00
33280;BME280;20403;43.114;12.434;2022-08-19T09:58:34;98647.06;;;21.79;100.00
33280;BME280;20403;43.114;12.434;2022-08-19T10:01:01;98643.94;;;21.86;100.00
33280;BME280;20403;43.114;12.434;2022-08-19T10:03:28;98644.69;;;21.77;100.00
33280;BME280;20403;43.114;12.434;2022-08-19T10:05:55;98656.88;;;21.78;100.00
33280;BME280;20403;43.114;12.434;2022-08-19T10:08:27;98659.03;;;21.76;100.00
33280;BME280;20403;43.114;12.434;2022-08-19T10:10:53;98652.63;;;21.69;100.00
33280;BME280;20403;43.114;12.434;2022-08-19T10:13:21;98642.97;;;21.73;100.00
33280;BME280;20403;43.114;12.434;2022-08-19T10:15:51;98649.63;;;21.61;100.00
33280;BME280;20403;43.114;12.434;2022-08-19T10:18:18;98649.28;;;21.54;100.00
33280;BME280;20403;43.114;12.434;2022-08-19T10:20:44;98649.91;;;21.60;100.00
33280;BME280;20403;43.114;12.434;2022-08-19T10:23:11;98647.59;;;21.58;100.00
33280;BME280;20403;43.114;12.434;2022-08-19T10:25:37;98635.91;;;21.68;100.00
33280;BME280;20403;43.114;12.434;2022-08-19T10:28:03;98627.66;;;21.70;100.00
33280;BME280;20403;43.114;12.434;2022-08-19T10:30:29;98636.06;;;21.63;100.00
33280;BME280;20403;43.114;12.434;2022-08-19T10:32:55;98636.78;;;21.55;100.00
33280;BME280;20403;43.114;12.434;2022-08-19T10:35:20;98646.50;;;21.59;100.00
33280;BME280;20403;43.114;12.434;2022-08-19T10:37:46;98664.78;;;21.61;100.00
33280;BME280;20403;43.114;12.434;2022-08-19T10:40:11;98658.00;;;21.55;100.00
33280;BME280;20403;43.114;12.434;2022-08-19T10:42:37;98670.72;;;21.67;100.00
33280;BME280;20403;43.114;12.434;2022-08-19T10:45:04;98687.63;;;21.48;100.00
33280;BME280;20403;43.114;12.434;2022-08-19T10:47:31;98680.19;;;21.36;100.00
33280;BME280;20403;43.114;12.434;2022-08-19T10:49:57;98676.38;;;21.43;100.00
33280;BME280;20403;43.114;12.434;2022-08-19T10:52:43;98681.09;;;21.32;100.00
33280;BME280;20403;43.114;12.434;2022-08-19T10:55:09;98696.13;;;21.36;100.00
33280;BME280;20403;43.114;12.434;2022-08-19T10:57:53;98716.91;;;21.20;100.00
33280;BME280;20403;43.114;12.434;2022-08-19T11:00:20;98703.28;;;21.13;100.00
33280;BME280;20403;43.114;12.434;2022-08-19T11:02:47;98710.75;;;21.11;100.00
33280;BME280;20403;43.114;12.434;2022-08-19T11:05:13;98716.41;;;21.18;100.00
33280;BME280;20403;43.114;12.434;2022-08-19T11:07:40;98722.53;;;21.19;100.00
33280;BME280;20403;43.114;12.434;2022-08-19T11:10:07;98715.94;;;21.16;100.00
33280;BME280;20403;43.114;12.434;2022-08-19T11:12:33;98719.97;;;21.14;100.00
33280;BME280;20403;43.114;12.434;2022-08-19T11:14:59;98714.00;;;21.08;100.00
33280;BME280;20403;43.114;12.434;2022-08-19T11:17:24;98694.91;;;20.97;100.00
33280;BME280;20403;43.114;12.434;2022-08-19T11:19:50;98695.25;;;21.05;100.00
33280;BME280;20403;43.114;12.434;2022-08-19T11:22:15;98690.03;;;21.13;100.00
33280;BME280;20403;43.114;12.434;2022-08-19T11:24:42;98679.44;;;21.13;100.00
33280;BME280;20403;43.114;12.434;2022-08-19T11:27:09;98676.84;;;21.22;100.00
33280;BME280;20403;43.114;12.434;2022-08-19T11:29:37;98669.00;;;21.17;100.00
33280;BME280;20403;43.114;12.434;2022-08-19T11:32:06;98660.56;;;21.37;100.00
33280;BME280;20403;43.114;12.434;2022-08-19T11:34:32;98647.06;;;21.48;100.00
33280;BME280;20403;43.114;12.434;2022-08-19T11:36:57;98643.59;;;21.70;100.00
33280;BME280;20403;43.114;12.434;2022-08-19T11:39:25;98639.53;;;21.72;100.00
33280;BME280;20403;43.114;12.434;2022-08-19T11:41:51;98645.78;;;21.76;100.00
33280;BME280;20403;43.114;12.434;2022-08-19T11:44:16;98647.06;;;21.88;100.00
33280;BME280;20403;43.114;12.434;2022-08-19T11:46:44;98647.44;;;22.03;100.00
33280;BME280;20403;43.114;12.434;2022-08-19T11:49:13;98628.25;;;22.15;100.00
33280;BME280;20403;43.114;12.434;2022-08-19T11:51:39;98619.44;;;22.46;100.00
33280;BME280;20403;43.114;12.434;2022-08-19T11:54:07;98601.28;;;22.65;100.00
33280;BME280;20403;43.114;12.434;2022-08-19T11:56:33;98584.03;;;23.15;100.00
33280;BME280;20403;43.114;12.434;2022-08-19T11:59:00;98575.16;;;23.88;100.00
33280;BME280;20403;43.114;12.434;2022-08-19T12:01:26;98570.97;;;24.50;100.00
33280;BME280;20403;43.114;12.434;2022-08-19T12:03:53;98564.72;;;24.79;100.00
33280;BME280;20403;43.114;12.434;2022-08-19T12:06:25;98568.56;;;25.36;100.00
33280;BME280;20403;43.114;12.434;2022-08-19T12:08:54;98574.09;;;25.55;100.00
33280;BME280;20403;43.114;12.434;2022-08-19T12:11:20;98583.00;;;25.60;100.00
33280;BME280;20403;43.114;12.434;2022-08-19T12:13:46;98577.56;;;25.56;100.00
33280;BME280;20403;43.114;12.434;2022-08-19T12:16:20;98567.44;;;25.62;100.00
33280;BME280;20403;43.114;12.434;2022-08-19T12:18:48;98562.63;;;26.16;100.00
33280;BME280;20403;43.114;12.434;2022-08-19T12:21:18;98540.91;;;26.46;100.00
33280;BME280;20403;43.114;12.434;2022-08-19T12:23:46;98542.16;;;26.93;100.00
33280;BME280;20403;43.114;12.434;2022-08-19T12:26:12;98553.16;;;26.75;100.00
33280;BME280;20403;43.114;12.434;2022-08-19T12:28:38;98554.56;;;27.01;100.00
33280;BME280;20403;43.114;12.434;2022-08-19T12:31:04;98551.88;;;27.29;100.00
33280;BME280;20403;43.114;12.434;2022-08-19T12:33:29;98548.66;;;27.23;100.00
33280;BME280;20403;43.114;12.434;2022-08-19T12:36:04;98533.03;;;27.41;100.00
33280;BME280;20403;43.114;12.434;2022-08-19T12:38:30;98524.56;;;27.39;100.00
33280;BME280;20403;43.114;12.434;2022-08-19T12:40:57;98527.41;;;26.99;100.00
33280;BME280;20403;43.114;12.434;2022-08-19T12:43:23;98519.63;;;27.10;100.00
33280;BME280;20403;43.114;12.434;2022-08-19T12:45:48;98515.13;;;27.14;100.00
33280;BME280;20403;43.114;12.434;2022-08-19T12:48:14;98520.50;;;27.30;100.00
33280;BME280;20403;43.114;12.434;2022-08-19T12:50:41;98515.91;;;27.30;100.00
33280;BME280;20403;43.114;12.434;2022-08-19T12:53:06;98510.31;;;27.35;100.00
33280;BME280;20403;43.114;12.434;2022-08-19T12:55:32;98514.72;;;27.28;100.00
33280;BME280;20403;43.114;12.434;2022-08-19T12:57:57;98507.72;;;27.39;100.00
33280;BME280;20403;43.114;12.434;2022-08-19T13:00:23;98501.31;;;27.43;100.00
33280;BME280;20403;43.114;12.434;2022-08-19T13:02:51;98510.72;;;27.73;100.00
33280;BME280;20403;43.114;12.434;2022-08-19T13:05:21;98503.44;;;27.54;100.00
33280;BME280;20403;43.114;12.434;2022-08-19T13:07:48;98504.22;;;27.54;100.00
33280;BME280;20403;43.114;12.434;2022-08-19T13:10:15;98512.03;;;27.43;100.00
33280;BME280;20403;43.114;12.434;2022-08-19T13:12:43;98510.03;;;27.40;100.00
33280;BME280;20403;43.114;12.434;2022-08-19T13:15:09;98520.94;;;27.48;100.00
33280;BME280;20403;43.114;12.434;2022-08-19T13:17:36;98527.94;;;27.36;100.00
33280;BME280;20403;43.114;12.434;2022-08-19T13:20:02;98545.44;;;27.18;100.00
33280;BME280;20403;43.114;12.434;2022-08-19T13:22:28;98550.56;;;27.23;100.00
33280;BME280;20403;43.114;12.434;2022-08-19T13:24:53;98548.81;;;27.31;100.00
33280;BME280;20403;43.114;12.434;2022-08-19T13:27:19;98545.97;;;27.39;100.00
33280;BME280;20403;43.114;12.434;2022-08-19T13:29:44;98553.09;;;27.19;100.00
33280;BME280;20403;43.114;12.434;2022-08-19T13:32:31;98547.28;;;27.30;100.00
33280;BME280;20403;43.114;12.434;2022-08-19T13:35:16;98548.06;;;27.30;100.00
33280;BME280;20403;43.114;12.434;2022-08-19T13:37:42;98544.44;;;27.38;100.00
33280;BME280;20403;43.114;12.434;2022-08-19T13:40:19;98545.47;;;27.34;100.00
33280;BME280;20403;43.114;12.434;2022-08-19T13:42:48;98548.75;;;27.27;100.00
33280;BME280;20403;43.114;12.434;2022-08-19T13:45:16;98539.72;;;27.19;100.00
33280;BME280;20403;43.114;12.434;2022-08-19T13:47:54;98536.63;;;27.01;100.00
33280;BME280;20403;43.114;12.434;2022-08-19T13:50:23;98539.88;;;26.23;100.00
33280;BME280;20403;43.114;12.434;2022-08-19T13:52:51;98553.31;;;25.86;100.00
33280;BME280;20403;43.114;12.434;2022-08-19T13:55:17;98560.66;;;25.52;100.00
33280;BME280;20403;43.114;12.434;2022-08-19T13:57:42;98561.31;;;25.24;100.00
33280;BME280;20403;43.114;12.434;2022-08-19T14:00:15;98573.03;;;25.11;100.00
33280;BME280;20403;43.114;12.434;2022-08-19T14:02:42;98588.81;;;25.04;100.00
33280;BME280;20403;43.114;12.434;2022-08-19T14:05:12;98610.28;;;24.74;100.00
33280;BME280;20403;43.114;12.434;2022-08-19T14:07:37;98629.88;;;24.06;100.00
33280;BME280;20403;43.114;12.434;2022-08-19T14:10:05;98622.53;;;22.39;100.00
33280;BME280;20403;43.114;12.434;2022-08-19T14:12:31;98640.13;;;22.18;100.00
33280;BME280;20403;43.114;12.434;2022-08-19T14:14:57;98647.66;;;21.76;100.00
33280;BME280;20403;43.114;12.434;2022-08-19T14:17:23;98637.22;;;21.48;100.00
33280;BME280;20403;43.114;12.434;2022-08-19T14:19:50;98635.53;;;21.52;100.00
33280;BME280;20403;43.114;12.434;2022-08-19T14:22:20;98650.84;;;21.55;100.00
33280;BME280;20403;43.114;12.434;2022-08-19T14:24:46;98644.13;;;21.58;100.00
33280;BME280;20403;43.114;12.434;2022-08-19T14:27:12;98651.59;;;21.47;100.00
33280;BME280;20403;43.114;12.434;2022-08-19T14:29:37;98651.72;;;21.42;100.00
33280;BME280;20403;43.114;12.434;2022-08-19T14:32:03;98652.19;;;21.22;100.00
33280;BME280;20403;43.114;12.434;2022-08-19T14:34:28;98636.50;;;21.11;100.00
33280;BME280;20403;43.114;12.434;2022-08-19T14:36:57;98637.00;;;21.13;100.00
33280;BME280;20403;43.114;12.434;2022-08-19T14:39:23;98650.88;;;21.10;100.00
33280;BME280;20403;43.114;12.434;2022-08-19T14:41:48;98636.84;;;21.10;100.00
33280;BME280;20403;43.114;12.434;2022-08-19T14:44:14;98620.59;;;21.11;100.00
33280;BME280;20403;43.114;12.434;2022-08-19T14:46:39;98627.72;;;21.25;100.00
33280;BME280;20403;43.114;12.434;2022-08-19T14:49:05;98640.97;;;21.25;100.00
33280;BME280;20403;43.114;12.434;2022-08-19T14:51:31;98636.94;;;21.27;100.00
33280;BME280;20403;43.114;12.434;2022-08-19T14:53:56;98661.09;;;21.26;100.00
33280;BME280;20403;43.114;12.434;2022-08-19T14:56:25;98669.00;;;21.17;100.00
33280;BME280;20403;43.114;12.434;2022-08-19T14:58:52;98676.97;;;21.17;100.00
33280;BME280;20403;43.114;12.434;2022-08-19T15:01:19;98692.56;;;21.18;100.00
33280;BME280;20403;43.114;12.434;2022-08-19T15:03:48;98696.53;;;21.30;100.00
33280;BME280;20403;43.114;12.434;2022-08-19T15:06:14;98703.00;;;21.37;100.00
33280;BME280;20403;43.114;12.434;2022-08-19T15:08:41;98705.94;;;21.36;100.00
33280;BME280;20403;43.114;12.434;2022-08-19T15:11:14;98704.50;;;21.30;100.00